< < Back
Terminal Aerodrome Forecast


Current Version              Previous Versions:   1  2  3  4  5  6  7  8  9  

Terminal Aerodrome Forecast

134
FTUS42 KJAX 191000 AAA
TAFGNV
TAF AMD
KGNV 191001Z 1910/2006 05002KT P6SM FEW020 OVC250
     FM191500 06004KT P6SM VCSH SCT025 BKN250
     FM191900 07006KT P6SM -SHRA VCTS OVC035CB
      TEMPO 1920/1924 3SM TSRA OVC025CB
     FM200400 05002KT P6SM VCSH BKN040 BKN250=



Latest METAR

818
SAUS70 KWBC 191700 RRA
MTRGNV
METAR KGNV 191653Z 07003KT 10SM -RA FEW075 BKN100 BKN110 26/23 A3000 RMK
AO2 RAB53 SLP157 P0000 T02610233


USA.gov is the U.S. government's official web portal to all federal, state and local government web resources and services.